sensor_id;sensor_type;location;lat;lon;timestamp;pressure;altitude;pressure_sealevel;temperature;humidity
76128;BME280;64873;50.102;14.434;2024-02-15T00:01:21;99748.69;;;8.48;79.76
76128;BME280;64873;50.102;14.434;2024-02-15T00:03:46;99752.75;;;8.65;79.39
76128;BME280;64873;50.102;14.434;2024-02-15T00:06:12;99748.53;;;8.77;79.56
76128;BME280;64873;50.102;14.434;2024-02-15T00:08:37;99746.94;;;8.83;79.27
76128;BME280;64873;50.102;14.434;2024-02-15T00:11:03;99753.75;;;8.64;79.99
76128;BME280;64873;50.102;14.434;2024-02-15T00:13:28;99760.06;;;8.85;80.38
76128;BME280;64873;50.102;14.434;2024-02-15T00:15:53;99748.03;;;8.67;80.88
76128;BME280;64873;50.102;14.434;2024-02-15T00:18:19;99736.19;;;8.48;81.40
76128;BME280;64873;50.102;14.434;2024-02-15T00:20:44;99754.03;;;8.48;81.85
76128;BME280;64873;50.102;14.434;2024-02-15T00:23:10;99726.25;;;8.36;82.96
76128;BME280;64873;50.102;14.434;2024-02-15T00:25:35;99745.41;;;8.46;82.47
76128;BME280;64873;50.102;14.434;2024-02-15T00:28:01;99739.28;;;8.31;83.11
76128;BME280;64873;50.102;14.434;2024-02-15T00:30:27;99738.66;;;8.28;83.77
76128;BME280;64873;50.102;14.434;2024-02-15T00:32:53;99738.22;;;8.25;84.37
76128;BME280;64873;50.102;14.434;2024-02-15T00:35:18;99735.34;;;8.26;84.76
76128;BME280;64873;50.102;14.434;2024-02-15T00:37:44;99743.53;;;8.25;85.11
76128;BME280;64873;50.102;14.434;2024-02-15T00:40:10;99712.75;;;8.16;85.54
76128;BME280;64873;50.102;14.434;2024-02-15T00:42:36;99734.84;;;8.16;86.05
76128;BME280;64873;50.102;14.434;2024-02-15T00:45:03;99730.72;;;8.14;86.27
76128;BME280;64873;50.102;14.434;2024-02-15T00:47:29;99727.38;;;8.05;86.84
76128;BME280;64873;50.102;14.434;2024-02-15T00:49:54;99729.78;;;8.00;87.25
76128;BME280;64873;50.102;14.434;2024-02-15T00:52:19;99719.69;;;7.95;87.74
76128;BME280;64873;50.102;14.434;2024-02-15T00:54:46;99728.69;;;7.94;88.24
76128;BME280;64873;50.102;14.434;2024-02-15T00:57:11;99727.31;;;7.98;88.67
76128;BME280;64873;50.102;14.434;2024-02-15T00:59:37;99720.63;;;7.88;88.89
76128;BME280;64873;50.102;14.434;2024-02-15T01:02:03;99725.50;;;7.84;89.06
76128;BME280;64873;50.102;14.434;2024-02-15T01:04:29;99727.16;;;7.85;89.54
76128;BME280;64873;50.102;14.434;2024-02-15T01:06:55;99717.72;;;7.83;89.46
76128;BME280;64873;50.102;14.434;2024-02-15T01:09:22;99723.41;;;7.80;89.81
76128;BME280;64873;50.102;14.434;2024-02-15T01:11:47;99715.19;;;7.74;90.19
76128;BME280;64873;50.102;14.434;2024-02-15T01:14:13;99722.66;;;7.86;91.00
76128;BME280;64873;50.102;14.434;2024-02-15T01:16:38;99711.69;;;7.74;90.92
76128;BME280;64873;50.102;14.434;2024-02-15T01:19:04;99716.53;;;8.28;90.38
76128;BME280;64873;50.102;14.434;2024-02-15T01:21:30;99704.06;;;8.28;89.53
76128;BME280;64873;50.102;14.434;2024-02-15T01:23:55;99704.81;;;8.01;90.60
76128;BME280;64873;50.102;14.434;2024-02-15T01:26:21;99711.00;;;8.08;91.26
76128;BME280;64873;50.102;14.434;2024-02-15T01:28:46;99705.50;;;7.88;91.24
76128;BME280;64873;50.102;14.434;2024-02-15T01:31:12;99703.41;;;7.84;91.63
76128;BME280;64873;50.102;14.434;2024-02-15T01:33:38;99685.66;;;7.69;92.67
76128;BME280;64873;50.102;14.434;2024-02-15T01:36:04;99701.22;;;7.72;93.36
76128;BME280;64873;50.102;14.434;2024-02-15T01:38:29;99694.72;;;7.75;93.71
76128;BME280;64873;50.102;14.434;2024-02-15T01:40:55;99670.44;;;7.63;93.95
76128;BME280;64873;50.102;14.434;2024-02-15T01:43:20;99692.22;;;7.73;94.01
76128;BME280;64873;50.102;14.434;2024-02-15T01:45:46;99688.94;;;7.71;94.25
76128;BME280;64873;50.102;14.434;2024-02-15T01:48:15;99686.53;;;7.77;94.34
76128;BME280;64873;50.102;14.434;2024-02-15T01:50:41;99662.41;;;7.78;94.22
76128;BME280;64873;50.102;14.434;2024-02-15T01:53:07;99681.59;;;7.73;94.06
76128;BME280;64873;50.102;14.434;2024-02-15T01:55:34;99688.56;;;7.74;94.29
76128;BME280;64873;50.102;14.434;2024-02-15T01:58:01;99686.66;;;7.68;94.75
76128;BME280;64873;50.102;14.434;2024-02-15T02:00:27;99687.03;;;7.65;95.03
76128;BME280;64873;50.102;14.434;2024-02-15T02:02:53;99676.66;;;7.70;95.14
76128;BME280;64873;50.102;14.434;2024-02-15T02:05:19;99678.69;;;7.68;94.92
76128;BME280;64873;50.102;14.434;2024-02-15T02:07:44;99684.00;;;7.68;95.35
76128;BME280;64873;50.102;14.434;2024-02-15T02:10:10;99674.13;;;7.84;95.44
76128;BME280;64873;50.102;14.434;2024-02-15T02:12:39;99681.22;;;8.19;94.72
76128;BME280;64873;50.102;14.434;2024-02-15T02:15:09;99668.53;;;7.79;94.32
76128;BME280;64873;50.102;14.434;2024-02-15T02:17:36;99678.00;;;7.81;94.38
76128;BME280;64873;50.102;14.434;2024-02-15T02:20:02;99681.28;;;7.83;95.35
76128;BME280;64873;50.102;14.434;2024-02-15T02:22:34;99678.88;;;7.88;95.45
76128;BME280;64873;50.102;14.434;2024-02-15T02:25:06;99673.00;;;7.93;95.51
76128;BME280;64873;50.102;14.434;2024-02-15T02:27:33;99678.31;;;7.93;95.64
76128;BME280;64873;50.102;14.434;2024-02-15T02:29:59;99664.38;;;7.91;95.63
76128;BME280;64873;50.102;14.434;2024-02-15T02:32:27;99671.97;;;7.94;95.72
76128;BME280;64873;50.102;14.434;2024-02-15T02:34:53;99655.50;;;7.84;95.85
76128;BME280;64873;50.102;14.434;2024-02-15T02:37:23;99664.63;;;7.96;95.65
76128;BME280;64873;50.102;14.434;2024-02-15T02:39:49;99654.22;;;7.80;95.68
76128;BME280;64873;50.102;14.434;2024-02-15T02:42:15;99674.50;;;8.02;95.30
76128;BME280;64873;50.102;14.434;2024-02-15T02:44:40;99672.44;;;7.97;95.40
76128;BME280;64873;50.102;14.434;2024-02-15T02:47:05;99681.47;;;8.24;94.76
76128;BME280;64873;50.102;14.434;2024-02-15T02:49:31;99672.00;;;8.15;93.95
76128;BME280;64873;50.102;14.434;2024-02-15T02:51:56;99672.50;;;8.04;94.63
76128;BME280;64873;50.102;14.434;2024-02-15T02:54:22;99663.44;;;7.98;94.87
76128;BME280;64873;50.102;14.434;2024-02-15T02:56:47;99685.47;;;8.14;94.97
76128;BME280;64873;50.102;14.434;2024-02-15T02:59:12;99663.81;;;7.95;94.99
76128;BME280;64873;50.102;14.434;2024-02-15T03:01:38;99688.63;;;8.02;94.90
76128;BME280;64873;50.102;14.434;2024-02-15T03:04:05;99680.59;;;7.96;95.07
76128;BME280;64873;50.102;14.434;2024-02-15T03:06:30;99683.97;;;8.05;95.61
76128;BME280;64873;50.102;14.434;2024-02-15T03:08:56;99687.44;;;8.05;96.12
76128;BME280;64873;50.102;14.434;2024-02-15T03:11:22;99683.00;;;8.12;96.05
76128;BME280;64873;50.102;14.434;2024-02-15T03:13:48;99672.97;;;8.14;95.97
76128;BME280;64873;50.102;14.434;2024-02-15T03:16:14;99685.41;;;8.07;96.07
76128;BME280;64873;50.102;14.434;2024-02-15T03:18:39;99685.34;;;8.00;96.15
76128;BME280;64873;50.102;14.434;2024-02-15T03:21:06;99675.31;;;8.02;96.60
76128;BME280;64873;50.102;14.434;2024-02-15T03:23:36;99667.84;;;7.91;96.66
76128;BME280;64873;50.102;14.434;2024-02-15T03:26:02;99676.03;;;8.11;96.65
76128;BME280;64873;50.102;14.434;2024-02-15T03:28:28;99667.81;;;8.06;96.56
76128;BME280;64873;50.102;14.434;2024-02-15T03:30:54;99681.97;;;8.13;96.44
76128;BME280;64873;50.102;14.434;2024-02-15T03:33:21;99671.97;;;7.94;96.59
76128;BME280;64873;50.102;14.434;2024-02-15T03:35:51;99688.00;;;8.00;97.12
76128;BME280;64873;50.102;14.434;2024-02-15T03:38:17;99676.34;;;8.01;97.42
76128;BME280;64873;50.102;14.434;2024-02-15T03:40:42;99677.06;;;8.10;97.49
76128;BME280;64873;50.102;14.434;2024-02-15T03:43:08;99660.53;;;7.93;96.80
76128;BME280;64873;50.102;14.434;2024-02-15T03:45:34;99666.41;;;8.10;96.94
76128;BME280;64873;50.102;14.434;2024-02-15T03:47:59;99681.22;;;8.19;96.44
76128;BME280;64873;50.102;14.434;2024-02-15T03:50:24;99688.69;;;8.31;96.27
76128;BME280;64873;50.102;14.434;2024-02-15T03:52:50;99683.63;;;8.14;96.01
76128;BME280;64873;50.102;14.434;2024-02-15T03:55:16;99690.22;;;8.18;96.33
76128;BME280;64873;50.102;14.434;2024-02-15T03:57:41;99696.38;;;8.19;96.33
76128;BME280;64873;50.102;14.434;2024-02-15T04:00:09;99686.06;;;8.09;96.36
76128;BME280;64873;50.102;14.434;2024-02-15T04:02:46;99684.59;;;8.07;96.81
76128;BME280;64873;50.102;14.434;2024-02-15T04:05:14;99684.41;;;8.08;97.19
76128;BME280;64873;50.102;14.434;2024-02-15T04:07:40;99679.06;;;8.08;97.13
76128;BME280;64873;50.102;14.434;2024-02-15T04:10:06;99685.41;;;8.07;96.94
76128;BME280;64873;50.102;14.434;2024-02-15T04:12:33;99676.91;;;7.97;97.01
76128;BME280;64873;50.102;14.434;2024-02-15T04:14:59;99694.41;;;8.06;97.29
76128;BME280;64873;50.102;14.434;2024-02-15T04:17:30;99692.31;;;8.01;97.10
76128;BME280;64873;50.102;14.434;2024-02-15T04:20:00;99689.34;;;8.11;97.48
76128;BME280;64873;50.102;14.434;2024-02-15T04:22:26;99690.38;;;8.10;97.50
76128;BME280;64873;50.102;14.434;2024-02-15T04:24:51;99668.00;;;8.05;97.05
76128;BME280;64873;50.102;14.434;2024-02-15T04:27:16;99663.66;;;8.25;97.28
76128;BME280;64873;50.102;14.434;2024-02-15T04:29:46;99662.34;;;8.14;96.81
76128;BME280;64873;50.102;14.434;2024-02-15T04:32:11;99673.75;;;8.08;97.20
76128;BME280;64873;50.102;14.434;2024-02-15T04:34:37;99656.84;;;7.94;97.44
76128;BME280;64873;50.102;14.434;2024-02-15T04:37:03;99656.38;;;7.91;98.07
76128;BME280;64873;50.102;14.434;2024-02-15T04:39:35;99681.09;;;8.06;99.06
76128;BME280;64873;50.102;14.434;2024-02-15T04:42:04;99675.28;;;7.96;99.04
76128;BME280;64873;50.102;14.434;2024-02-15T04:44:31;99688.41;;;7.97;98.97
76128;BME280;64873;50.102;14.434;2024-02-15T04:47:00;99685.09;;;7.95;99.46
76128;BME280;64873;50.102;14.434;2024-02-15T04:49:25;99695.44;;;8.05;99.96
76128;BME280;64873;50.102;14.434;2024-02-15T04:51:54;99699.22;;;8.17;100.00
76128;BME280;64873;50.102;14.434;2024-02-15T04:54:19;99698.66;;;8.00;99.91
76128;BME280;64873;50.102;14.434;2024-02-15T04:56:45;99697.19;;;8.19;99.83
76128;BME280;64873;50.102;14.434;2024-02-15T04:59:11;99699.75;;;8.27;99.29
76128;BME280;64873;50.102;14.434;2024-02-15T05:01:43;99696.63;;;8.24;99.36
76128;BME280;64873;50.102;14.434;2024-02-15T05:04:09;99689.72;;;8.08;99.13
76128;BME280;64873;50.102;14.434;2024-02-15T05:06:35;99678.59;;;7.98;99.31
76128;BME280;64873;50.102;14.434;2024-02-15T05:09:02;99688.19;;;8.20;99.10
76128;BME280;64873;50.102;14.434;2024-02-15T05:11:35;99694.28;;;8.14;99.09
76128;BME280;64873;50.102;14.434;2024-02-15T05:14:04;99685.94;;;8.17;99.15
76128;BME280;64873;50.102;14.434;2024-02-15T05:16:35;99699.84;;;8.19;99.33
76128;BME280;64873;50.102;14.434;2024-02-15T05:19:07;99690.16;;;8.12;99.37
76128;BME280;64873;50.102;14.434;2024-02-15T05:21:32;99680.91;;;8.29;99.65
76128;BME280;64873;50.102;14.434;2024-02-15T05:23:59;99686.75;;;8.18;99.60
76128;BME280;64873;50.102;14.434;2024-02-15T05:26:24;99696.84;;;8.22;99.70
76128;BME280;64873;50.102;14.434;2024-02-15T05:28:50;99695.50;;;8.12;99.73
76128;BME280;64873;50.102;14.434;2024-02-15T05:31:19;99699.88;;;8.41;99.97
76128;BME280;64873;50.102;14.434;2024-02-15T05:33:49;99692.31;;;8.23;99.15
76128;BME280;64873;50.102;14.434;2024-02-15T05:36:18;99698.06;;;8.26;99.42
76128;BME280;64873;50.102;14.434;2024-02-15T05:38:49;99689.88;;;8.21;99.66
76128;BME280;64873;50.102;14.434;2024-02-15T05:41:15;99695.94;;;8.15;99.65
76128;BME280;64873;50.102;14.434;2024-02-15T05:43:41;99695.75;;;8.17;99.97
76128;BME280;64873;50.102;14.434;2024-02-15T05:46:07;99691.63;;;8.14;100.00
76128;BME280;64873;50.102;14.434;2024-02-15T05:48:33;99704.59;;;8.39;99.69
76128;BME280;64873;50.102;14.434;2024-02-15T05:51:06;99698.28;;;8.46;99.58
76128;BME280;64873;50.102;14.434;2024-02-15T05:53:32;99694.41;;;8.49;99.08
76128;BME280;64873;50.102;14.434;2024-02-15T05:56:08;99705.09;;;8.55;98.67
76128;BME280;64873;50.102;14.434;2024-02-15T05:58:34;99701.72;;;8.40;98.58
76128;BME280;64873;50.102;14.434;2024-02-15T06:01:01;99706.31;;;8.32;99.03
76128;BME280;64873;50.102;14.434;2024-02-15T06:03:31;99701.75;;;8.25;99.38
76128;BME280;64873;50.102;14.434;2024-02-15T06:06:02;99711.38;;;8.26;99.69
76128;BME280;64873;50.102;14.434;2024-02-15T06:08:32;99707.34;;;8.52;99.75
76128;BME280;64873;50.102;14.434;2024-02-15T06:10:58;99705.94;;;8.35;99.25
76128;BME280;64873;50.102;14.434;2024-02-15T06:13:25;99714.22;;;8.40;99.33
76128;BME280;64873;50.102;14.434;2024-02-15T06:15:51;99718.72;;;8.39;99.40
76128;BME280;64873;50.102;14.434;2024-02-15T06:18:25;99714.38;;;8.38;99.49
76128;BME280;64873;50.102;14.434;2024-02-15T06:20:53;99713.56;;;8.38;99.63
76128;BME280;64873;50.102;14.434;2024-02-15T06:23:19;99718.97;;;8.44;99.90
76128;BME280;64873;50.102;14.434;2024-02-15T06:25:46;99714.22;;;8.40;100.00
76128;BME280;64873;50.102;14.434;2024-02-15T06:28:12;99719.25;;;8.35;100.00
76128;BME280;64873;50.102;14.434;2024-02-15T06:30:44;99702.22;;;8.29;99.93
76128;BME280;64873;50.102;14.434;2024-02-15T06:33:28;99713.56;;;8.38;100.00
76128;BME280;64873;50.102;14.434;2024-02-15T06:36:12;99723.22;;;8.39;100.00
76128;BME280;64873;50.102;14.434;2024-02-15T06:38:56;99725.50;;;8.42;100.00
76128;BME280;64873;50.102;14.434;2024-02-15T06:41:40;99730.84;;;8.70;100.00
76128;BME280;64873;50.102;14.434;2024-02-15T06:44:05;99729.22;;;8.69;99.07
76128;BME280;64873;50.102;14.434;2024-02-15T06:46:31;99737.78;;;8.64;98.92
76128;BME280;64873;50.102;14.434;2024-02-15T06:48:56;99742.69;;;8.67;99.09
76128;BME280;64873;50.102;14.434;2024-02-15T06:51:23;99747.81;;;8.62;98.79
76128;BME280;64873;50.102;14.434;2024-02-15T06:53:49;99740.69;;;8.69;99.03
76128;BME280;64873;50.102;14.434;2024-02-15T06:56:16;99739.50;;;8.78;98.94
76128;BME280;64873;50.102;14.434;2024-02-15T06:58:43;99726.06;;;8.87;98.44
76128;BME280;64873;50.102;14.434;2024-02-15T07:01:08;99733.03;;;8.88;97.83
76128;BME280;64873;50.102;14.434;2024-02-15T07:03:34;99740.25;;;8.94;97.53
76128;BME280;64873;50.102;14.434;2024-02-15T07:05:59;99728.03;;;9.06;97.42
76128;BME280;64873;50.102;14.434;2024-02-15T07:08:25;99737.38;;;8.95;97.17
76128;BME280;64873;50.102;14.434;2024-02-15T07:10:51;99723.72;;;9.05;96.80
76128;BME280;64873;50.102;14.434;2024-02-15T07:13:19;99737.13;;;9.18;96.30
76128;BME280;64873;50.102;14.434;2024-02-15T07:15:45;99747.94;;;9.10;96.23
76128;BME280;64873;50.102;14.434;2024-02-15T07:18:12;99734.53;;;9.31;95.91
76128;BME280;64873;50.102;14.434;2024-02-15T07:20:41;99734.94;;;9.28;95.01
76128;BME280;64873;50.102;14.434;2024-02-15T07:23:07;99751.63;;;9.44;95.08
76128;BME280;64873;50.102;14.434;2024-02-15T07:25:32;99739.25;;;9.29;95.03
76128;BME280;64873;50.102;14.434;2024-02-15T07:27:57;99748.91;;;9.37;95.03
76128;BME280;64873;50.102;14.434;2024-02-15T07:30:23;99751.41;;;9.39;94.63
76128;BME280;64873;50.102;14.434;2024-02-15T07:32:50;99754.13;;;9.52;94.17
76128;BME280;64873;50.102;14.434;2024-02-15T07:35:15;99750.00;;;9.49;94.36
76128;BME280;64873;50.102;14.434;2024-02-15T07:37:55;99757.69;;;9.72;93.81
76128;BME280;64873;50.102;14.434;2024-02-15T07:40:22;99757.34;;;9.88;92.27
76128;BME280;64873;50.102;14.434;2024-02-15T07:42:48;99744.44;;;9.85;91.80
76128;BME280;64873;50.102;14.434;2024-02-15T07:45:14;99744.69;;;10.10;91.25
76128;BME280;64873;50.102;14.434;2024-02-15T07:47:40;99745.78;;;10.29;90.42
76128;BME280;64873;50.102;14.434;2024-02-15T07:50:05;99740.44;;;10.49;88.24
76128;BME280;64873;50.102;14.434;2024-02-15T07:52:34;99755.66;;;10.55;88.46
76128;BME280;64873;50.102;14.434;2024-02-15T07:55:00;99755.84;;;10.27;88.81
76128;BME280;64873;50.102;14.434;2024-02-15T07:57:33;99743.53;;;10.26;89.22
76128;BME280;64873;50.102;14.434;2024-02-15T07:59:58;99729.47;;;9.98;90.49
76128;BME280;64873;50.102;14.434;2024-02-15T08:02:23;99751.72;;;10.25;89.36
76128;BME280;64873;50.102;14.434;2024-02-15T08:04:50;99748.78;;;10.13;90.44
76128;BME280;64873;50.102;14.434;2024-02-15T08:07:16;99744.16;;;10.55;89.25
76128;BME280;64873;50.102;14.434;2024-02-15T08:09:42;99745.19;;;10.47;88.76
76128;BME280;64873;50.102;14.434;2024-02-15T08:12:08;99741.47;;;10.48;89.24
76128;BME280;64873;50.102;14.434;2024-02-15T08:14:34;99739.03;;;10.53;88.55
76128;BME280;64873;50.102;14.434;2024-02-15T08:16:59;99754.66;;;10.63;88.38
76128;BME280;64873;50.102;14.434;2024-02-15T08:19:26;99740.28;;;10.44;89.68
76128;BME280;64873;50.102;14.434;2024-02-15T08:21:52;99745.81;;;10.62;88.50
76128;BME280;64873;50.102;14.434;2024-02-15T08:24:17;99741.06;;;10.98;87.06
76128;BME280;64873;50.102;14.434;2024-02-15T08:26:43;99728.91;;;11.15;85.45
76128;BME280;64873;50.102;14.434;2024-02-15T08:29:08;99747.06;;;10.86;86.87
76128;BME280;64873;50.102;14.434;2024-02-15T08:31:40;99749.28;;;10.96;87.25
76128;BME280;64873;50.102;14.434;2024-02-15T08:34:06;99744.78;;;10.97;87.62
76128;BME280;64873;50.102;14.434;2024-02-15T08:36:35;99740.25;;;11.04;86.84
76128;BME280;64873;50.102;14.434;2024-02-15T08:39:00;99743.13;;;11.09;86.15
76128;BME280;64873;50.102;14.434;2024-02-15T08:41:26;99747.03;;;11.00;86.57
76128;BME280;64873;50.102;14.434;2024-02-15T08:43:53;99747.22;;;11.05;86.15
76128;BME280;64873;50.102;14.434;2024-02-15T08:46:19;99756.66;;;11.14;85.84
76128;BME280;64873;50.102;14.434;2024-02-15T08:48:47;99755.03;;;11.26;85.36
76128;BME280;64873;50.102;14.434;2024-02-15T08:51:13;99749.25;;;11.23;85.64
76128;BME280;64873;50.102;14.434;2024-02-15T08:53:38;99731.16;;;11.18;85.37
76128;BME280;64873;50.102;14.434;2024-02-15T08:56:04;99752.94;;;11.35;85.12
76128;BME280;64873;50.102;14.434;2024-02-15T08:58:30;99749.59;;;11.53;84.06
76128;BME280;64873;50.102;14.434;2024-02-15T09:00:57;99747.16;;;11.38;84.36
76128;BME280;64873;50.102;14.434;2024-02-15T09:03:22;99751.63;;;11.57;84.65
76128;BME280;64873;50.102;14.434;2024-02-15T09:05:47;99748.28;;;11.75;83.48
76128;BME280;64873;50.102;14.434;2024-02-15T09:08:13;99747.88;;;11.65;83.54
76128;BME280;64873;50.102;14.434;2024-02-15T09:10:40;99751.34;;;11.79;83.57
76128;BME280;64873;50.102;14.434;2024-02-15T09:13:06;99754.38;;;11.95;82.57
76128;BME280;64873;50.102;14.434;2024-02-15T09:15:32;99737.38;;;12.15;81.50
76128;BME280;64873;50.102;14.434;2024-02-15T09:17:57;99739.09;;;12.03;81.95
76128;BME280;64873;50.102;14.434;2024-02-15T09:20:24;99742.66;;;12.28;81.48
76128;BME280;64873;50.102;14.434;2024-02-15T09:22:54;99742.03;;;11.94;81.99
76128;BME280;64873;50.102;14.434;2024-02-15T09:25:23;99748.75;;;11.59;83.10
76128;BME280;64873;50.102;14.434;2024-02-15T09:27:49;99747.59;;;11.28;85.22
76128;BME280;64873;50.102;14.434;2024-02-15T09:30:15;99727.00;;;11.35;84.56
76128;BME280;64873;50.102;14.434;2024-02-15T09:32:42;99731.31;;;11.36;84.54
76128;BME280;64873;50.102;14.434;2024-02-15T09:35:09;99740.97;;;11.37;84.97
76128;BME280;64873;50.102;14.434;2024-02-15T09:37:46;99740.38;;;11.29;85.42
76128;BME280;64873;50.102;14.434;2024-02-15T09:40:14;99743.16;;;11.67;84.10
76128;BME280;64873;50.102;14.434;2024-02-15T09:42:42;99726.47;;;11.65;83.38
76128;BME280;64873;50.102;14.434;2024-02-15T09:45:11;99745.88;;;11.54;84.04
76128;BME280;64873;50.102;14.434;2024-02-15T09:47:41;99747.66;;;11.73;83.15
76128;BME280;64873;50.102;14.434;2024-02-15T09:50:09;99743.25;;;11.98;82.23
76128;BME280;64873;50.102;14.434;2024-02-15T09:52:50;99750.72;;;11.77;83.32
76128;BME280;64873;50.102;14.434;2024-02-15T09:55:17;99744.88;;;11.99;83.57
76128;BME280;64873;50.102;14.434;2024-02-15T09:57:43;99749.41;;;11.99;82.62
76128;BME280;64873;50.102;14.434;2024-02-15T10:00:10;99753.09;;;12.05;85.10
76128;BME280;64873;50.102;14.434;2024-02-15T10:02:43;99758.72;;;12.28;81.27
76128;BME280;64873;50.102;14.434;2024-02-15T10:05:18;99752.66;;;11.63;83.43
76128;BME280;64873;50.102;14.434;2024-02-15T10:07:44;99757.00;;;11.51;84.16
76128;BME280;64873;50.102;14.434;2024-02-15T10:12:42;99763.13;;;11.64;85.02
76128;BME280;64873;50.102;14.434;2024-02-15T10:15:38;99766.19;;;11.81;83.58
76128;BME280;64873;50.102;14.434;2024-02-15T10:18:06;99753.97;;;11.98;82.70
76128;BME280;64873;50.102;14.434;2024-02-15T10:20:41;99760.88;;;12.13;83.83
76128;BME280;64873;50.102;14.434;2024-02-15T10:23:12;99763.09;;;12.22;81.47
76128;BME280;64873;50.102;14.434;2024-02-15T10:25:39;99741.16;;;12.00;81.96
76128;BME280;64873;50.102;14.434;2024-02-15T10:28:07;99752.59;;;12.21;81.54
76128;BME280;64873;50.102;14.434;2024-02-15T10:30:36;99743.94;;;12.50;81.00
76128;BME280;64873;50.102;14.434;2024-02-15T10:33:06;99727.03;;;12.75;80.12
76128;BME280;64873;50.102;14.434;2024-02-15T10:35:32;99732.31;;;13.06;78.42
76128;BME280;64873;50.102;14.434;2024-02-15T10:38:09;99727.38;;;13.28;77.74
76128;BME280;64873;50.102;14.434;2024-02-15T10:40:36;99727.13;;;13.48;75.63
76128;BME280;64873;50.102;14.434;2024-02-15T10:43:05;99736.84;;;13.49;75.61
76128;BME280;64873;50.102;14.434;2024-02-15T10:45:32;99730.75;;;13.60;75.21
76128;BME280;64873;50.102;14.434;2024-02-15T10:47:58;99724.28;;;13.80;74.63
76128;BME280;64873;50.102;14.434;2024-02-15T10:50:24;99726.56;;;13.28;75.92
76128;BME280;64873;50.102;14.434;2024-02-15T10:52:57;99721.41;;;12.58;77.96
76128;BME280;64873;50.102;14.434;2024-02-15T10:55:36;99721.25;;;13.21;77.08
76128;BME280;64873;50.102;14.434;2024-02-15T10:58:05;99719.09;;;13.30;76.03
76128;BME280;64873;50.102;14.434;2024-02-15T11:00:34;99725.41;;;13.54;74.35
76128;BME280;64873;50.102;14.434;2024-02-15T11:03:07;99725.94;;;12.33;78.17
76128;BME280;64873;50.102;14.434;2024-02-15T11:05:37;99722.28;;;12.52;78.84
76128;BME280;64873;50.102;14.434;2024-02-15T11:08:06;99718.59;;;12.46;79.02
76128;BME280;64873;50.102;14.434;2024-02-15T11:10:34;99713.94;;;12.35;78.67
76128;BME280;64873;50.102;14.434;2024-02-15T11:13:01;99712.22;;;12.16;78.87
76128;BME280;64873;50.102;14.434;2024-02-15T11:15:43;99700.19;;;12.25;79.97
76128;BME280;64873;50.102;14.434;2024-02-15T11:18:46;99694.56;;;12.08;79.96
76128;BME280;64873;50.102;14.434;2024-02-15T11:21:15;99696.06;;;12.29;80.13
76128;BME280;64873;50.102;14.434;2024-02-15T11:23:42;99689.06;;;12.28;79.50
76128;BME280;64873;50.102;14.434;2024-02-15T11:26:43;99690.22;;;12.39;79.39
76128;BME280;64873;50.102;14.434;2024-02-15T11:32:49;99689.28;;;12.51;78.77
76128;BME280;64873;50.102;14.434;2024-02-15T11:35:24;99685.13;;;12.56;78.27
76128;BME280;64873;50.102;14.434;2024-02-15T11:37:51;99681.00;;;12.78;77.37
76128;BME280;64873;50.102;14.434;2024-02-15T11:40:24;99685.09;;;13.42;75.02
76128;BME280;64873;50.102;14.434;2024-02-15T11:42:55;99682.34;;;13.79;73.45
76128;BME280;64873;50.102;14.434;2024-02-15T11:45:22;99678.75;;;13.85;75.18
76128;BME280;64873;50.102;14.434;2024-02-15T11:47:55;99682.59;;;13.89;74.07
76128;BME280;64873;50.102;14.434;2024-02-15T11:50:22;99688.72;;;13.96;72.60
76128;BME280;64873;50.102;14.434;2024-02-15T11:52:50;99692.25;;;13.97;71.65
76128;BME280;64873;50.102;14.434;2024-02-15T11:55:20;99687.00;;;13.53;72.78
76128;BME280;64873;50.102;14.434;2024-02-15T11:58:13;99683.88;;;13.56;72.90
76128;BME280;64873;50.102;14.434;2024-02-15T12:00:59;99683.56;;;13.65;72.82
76128;BME280;64873;50.102;14.434;2024-02-15T12:03:42;99678.03;;;13.78;72.27
76128;BME280;64873;50.102;14.434;2024-02-15T12:06:30;99681.31;;;13.80;71.94
76128;BME280;64873;50.102;14.434;2024-02-15T12:09:18;99674.06;;;13.50;72.70
76128;BME280;64873;50.102;14.434;2024-02-15T12:12:02;99670.03;;;13.41;74.04
76128;BME280;64873;50.102;14.434;2024-02-15T12:14:47;99665.78;;;13.82;72.08
76128;BME280;64873;50.102;14.434;2024-02-15T12:17:31;99664.34;;;14.09;70.84
76128;BME280;64873;50.102;14.434;2024-02-15T12:20:15;99664.63;;;14.20;70.27
76128;BME280;64873;50.102;14.434;2024-02-15T12:22:43;99659.03;;;14.33;70.27
76128;BME280;64873;50.102;14.434;2024-02-15T12:25:14;99665.09;;;14.28;70.08
76128;BME280;64873;50.102;14.434;2024-02-15T12:27:41;99663.47;;;14.39;70.16
76128;BME280;64873;50.102;14.434;2024-02-15T12:30:13;99641.00;;;14.22;69.84
76128;BME280;64873;50.102;14.434;2024-02-15T12:32:39;99654.22;;;13.81;73.94
76128;BME280;64873;50.102;14.434;2024-02-15T12:35:14;99657.84;;;13.87;71.42
76128;BME280;64873;50.102;14.434;2024-02-15T12:38:08;99657.84;;;13.87;70.95
76128;BME280;64873;50.102;14.434;2024-02-15T12:40:36;99656.38;;;13.61;73.39
76128;BME280;64873;50.102;14.434;2024-02-15T12:43:04;99611.94;;;13.10;72.15
76128;BME280;64873;50.102;14.434;2024-02-15T12:45:40;99631.56;;;12.92;73.25
76128;BME280;64873;50.102;14.434;2024-02-15T12:48:07;99656.53;;;13.11;73.39
76128;BME280;64873;50.102;14.434;2024-02-15T12:50:34;99656.03;;;13.21;72.27
76128;BME280;64873;50.102;14.434;2024-02-15T12:53:00;99651.53;;;13.15;72.23
76128;BME280;64873;50.102;14.434;2024-02-15T12:55:39;99640.50;;;13.04;72.48
76128;BME280;64873;50.102;14.434;2024-02-15T12:58:07;99653.25;;;13.09;72.63
76128;BME280;64873;50.102;14.434;2024-02-15T13:00:39;99640.94;;;13.01;72.96
76128;BME280;64873;50.102;14.434;2024-02-15T13:03:13;99651.22;;;13.04;73.27
76128;BME280;64873;50.102;14.434;2024-02-15T13:05:53;99631.94;;;12.96;73.46
76128;BME280;64873;50.102;14.434;2024-02-15T13:08:18;99635.78;;;13.00;73.61